logo
Rechercher aéroport 
image banner adimage banner adimage banner ad
image banner ad

VT22 - Shelburne Farms

Situé à Shelburne, United States

ICAO - VT22, IATA -

Données fournies par Airmate  

Information générale

Coordonnées: N44°24'5" W73°16'1"
Élévation : 130 feet MSL.
Variation magnétique : -15° East
Voir autres Aéroports à Vermont

Données opérationnelles

Special qualification required
Heure actuelle UTC:
Heure actuelle locale:
METAR: KBTV 180054Z 00000KT 10SM OVC110 21/14 A2994 RMK AO2 SLP138 T02060139
Voir NOTAMs / SUP AIP / TFR affectant cet aéroport [VIEW]
Fréquences de communication: [VIEW]

Pistes:

Identifiant RWYQFULongueur (ft)Largeur (ft)SurfaceLDA (ft)
N190080GRASS
S190080GRASS

Coordonnées de l'aéroport

Adresse: Shelburne United States

Vue satellite de VT22